Time;durP1;ratioP1;P1;durP2;ratioP2;P2;SDS_P1;SDS_P2;PMS_P1;PMS_P2;Temp;Humidity;BMP_temperature;BMP_pressure;BME280_temperature;BME280_humidity;BME280_pressure;Samples;Min_cycle;Max_cycle;Signal;HPM_P1;HPM_P2
2022/10/14 00:01:49;;;;;;;30.60;21.95;;;;;;;15.83;66.49;99746.75;5091603;28;20083;-60
2022/10/14 00:04:16;;;;;;;29.00;21.55;;;;;;;15.82;66.59;99753.03;5091418;28;20131;-63
2022/10/14 00:06:42;;;;;;;32.00;23.60;;;;;;;15.80;66.61;99746.97;5091228;28;20147;-60
2022/10/14 00:09:09;;;;;;;28.02;22.45;;;;;;;15.80;66.67;99748.78;5091177;28;20480;-60
2022/10/14 00:11:36;;;;;;;29.25;22.10;;;;;;;15.77;66.68;99747.22;5091277;28;20131;-61
2022/10/14 00:14:07;;;;;;;27.60;23.48;;;;;;;15.75;66.85;99744.69;5090520;28;20481;-61
2022/10/14 00:16:38;;;;;;;30.85;23.35;;;;;;;15.74;67.07;99737.69;5091463;28;20048;-60
2022/10/14 00:19:05;;;;;;;31.33;22.95;;;;;;;15.75;66.68;99733.25;5106804;28;20104;-60
2022/10/14 00:21:33;;;;;;;27.20;22.33;;;;;;;15.73;66.65;99740.47;5091475;28;20068;-60
2022/10/14 00:23:59;;;;;;;28.15;21.98;;;;;;;15.73;66.54;99730.69;5090327;28;20093;-61
2022/10/14 00:26:29;;;;;;;28.50;23.17;;;;;;;15.71;66.70;99732.66;5091422;28;20098;-60
2022/10/14 00:28:57;;;;;;;30.88;23.05;;;;;;;15.72;66.37;99736.13;5091324;28;20044;-60
2022/10/14 00:31:25;;;;;;;29.23;23.10;;;;;;;15.69;66.38;99731.91;5091183;28;20055;-61
2022/10/14 00:33:52;;;;;;;36.17;22.55;;;;;;;15.66;66.15;99729.50;5091272;28;20052;-60
2022/10/14 00:36:20;;;;;;;29.50;22.42;;;;;;;15.63;66.24;99727.94;5091128;28;20102;-60
2022/10/14 00:38:47;;;;;;;29.55;23.52;;;;;;;15.61;65.95;99726.38;5090801;28;20048;-62
2022/10/14 00:41:18;;;;;;;29.42;22.73;;;;;;;15.56;66.07;99728.53;5106587;28;20083;-61
2022/10/14 00:43:55;;;;;;;29.75;23.80;;;;;;;15.45;66.49;99724.94;5090018;28;20048;-61
2022/10/14 00:46:23;;;;;;;24.98;21.02;;;;;;;15.44;65.76;99725.03;5090954;28;20052;-62
2022/10/14 00:48:50;;;;;;;27.30;22.38;;;;;;;15.39;65.76;99724.56;5090807;28;20082;-61
2022/10/14 00:51:18;;;;;;;29.95;22.42;;;;;;;15.32;65.82;99722.38;5110148;28;20060;-61
2022/10/14 00:53:45;;;;;;;29.70;23.25;;;;;;;15.27;65.79;99718.38;5095420;28;20048;-63
2022/10/14 00:56:14;;;;;;;27.30;23.25;;;;;;;15.23;65.97;99734.56;5094828;28;20134;-61
2022/10/14 00:58:44;;;;;;;29.00;23.63;;;;;;;15.19;66.22;99734.91;5094738;28;20052;-63
2022/10/14 01:01:10;;;;;;;27.55;21.83;;;;;;;15.15;65.95;99733.44;5095087;28;20113;-61
2022/10/14 01:03:39;;;;;;;27.45;22.55;;;;;;;15.10;66.27;99733.78;5094633;28;20056;-60
2022/10/14 01:06:21;;;;;;;27.63;21.30;;;;;;;15.02;66.90;99725.59;5094897;28;20090;-62
2022/10/14 01:08:53;;;;;;;27.23;22.25;;;;;;;15.01;66.47;99738.00;5094493;28;20094;-62
2022/10/14 01:11:45;;;;;;;28.13;21.63;;;;;;;14.95;67.00;99733.19;5094844;28;20109;-60
2022/10/14 01:14:23;;;;;;;28.65;22.83;;;;;;;14.97;65.90;99736.53;5094684;28;20484;-63
2022/10/14 01:17:09;;;;;;;25.67;21.25;;;;;;;14.89;66.97;99733.63;5094620;28;20044;-63
2022/10/14 01:19:54;;;;;;;26.00;21.67;;;;;;;14.90;66.21;99737.97;5110047;28;20663;-63
2022/10/14 01:22:37;;;;;;;27.90;21.98;;;;;;;14.84;66.72;99734.81;5094356;28;20126;-61
2022/10/14 01:25:25;;;;;;;28.00;21.98;;;;;;;14.79;67.10;99730.81;5094620;28;20072;-60
2022/10/14 01:28:05;;;;;;;30.33;22.77;;;;;;;14.76;67.29;99737.19;5093339;28;20109;-61
2022/10/14 01:30:37;;;;;;;28.02;21.52;;;;;;;14.80;66.94;99729.88;5094342;28;20055;-63
2022/10/14 01:33:25;;;;;;;27.95;22.67;;;;;;;14.73;67.85;99732.94;5092990;28;20496;-62
2022/10/14 01:36:05;;;;;;;29.23;22.95;;;;;;;14.75;67.97;99727.53;5093203;28;20044;-61
2022/10/14 01:38:44;;;;;;;28.95;22.95;;;;;;;14.78;67.64;99723.84;5092790;28;20561;-61
2022/10/14 01:41:20;;;;;;;29.13;22.73;;;;;;;14.81;67.72;99723.63;5109848;28;20048;-62
2022/10/14 01:43:50;;;;;;;28.23;22.13;;;;;;;14.85;67.57;99725.91;5093035;28;20102;-61
2022/10/14 01:46:20;;;;;;;28.88;22.48;;;;;;;14.87;67.60;99720.47;5094129;28;20079;-60
2022/10/14 01:48:55;;;;;;;30.83;22.83;;;;;;;14.89;67.93;99720.38;5092427;28;20082;-62
2022/10/14 01:51:28;;;;;;;28.55;22.80;;;;;;;14.91;67.74;99724.59;5110009;28;20097;-61
2022/10/14 01:54:05;;;;;;;30.92;22.38;;;;;;;14.94;67.83;99718.22;5093764;28;20105;-61
2022/10/14 01:56:33;;;;;;;28.52;22.58;;;;;;;14.97;67.32;99716.19;5092576;28;20143;-63
2022/10/14 01:59:09;;;;;;;31.27;23.05;;;;;;;15.00;67.04;99717.75;5092515;28;20055;-61
2022/10/14 02:01:36;;;;;;;30.58;23.10;;;;;;;15.02;67.22;99721.13;5093208;28;20086;-65
2022/10/14 02:04:14;;;;;;;28.73;21.92;;;;;;;15.00;67.93;99722.19;5113097;28;20525;-63
2022/10/14 02:06:45;;;;;;;26.88;21.45;;;;;;;15.03;67.10;99721.97;5113235;28;20040;-61
2022/10/14 02:09:33;;;;;;;31.80;22.98;;;;;;;15.01;67.87;99710.63;5113889;28;20087;-60
2022/10/14 02:12:37;;;;;;;28.27;22.58;;;;;;;15.01;67.83;99708.84;5114096;28;20568;-61
2022/10/14 02:15:33;;;;;;;27.50;22.00;;;;;;;15.02;67.74;99715.00;5113846;28;20051;-60
2022/10/14 02:18:04;;;;;;;26.70;20.52;;;;;;;15.04;67.24;99711.25;5107322;28;20063;-61
2022/10/14 02:20:47;;;;;;;29.13;20.98;;;;;;;15.01;67.51;99707.97;5113589;28;20082;-60
2022/10/14 02:23:18;;;;;;;27.08;20.25;;;;;;;15.03;67.11;99700.78;5114065;28;20681;-63
2022/10/14 02:25:48;;;;;;;28.45;20.17;;;;;;;15.03;67.18;99706.06;5113539;28;20071;-62
2022/10/14 02:28:18;;;;;;;28.65;21.65;;;;;;;15.02;67.07;99712.34;5113348;28;20040;-60
2022/10/14 02:30:50;;;;;;;28.80;22.23;;;;;;;15.01;67.24;99713.28;5112315;28;20131;-62
2022/10/14 02:33:21;;;;;;;27.05;21.50;;;;;;;15.02;67.04;99718.47;5112223;28;20048;-63
2022/10/14 02:35:50;;;;;;;27.58;21.67;;;;;;;15.02;66.88;99721.13;5112484;28;20146;-61
2022/10/14 02:38:19;;;;;;;28.08;21.42;;;;;;;15.01;67.06;99721.25;5113362;28;20483;-61
2022/10/14 02:40:49;;;;;;;28.08;21.45;;;;;;;14.99;67.16;99716.03;5113306;28;20568;-62
2022/10/14 02:43:16;;;;;;;28.75;20.90;;;;;;;14.99;66.92;99718.69;5113648;28;20158;-64
2022/10/14 02:45:43;;;;;;;24.45;20.10;;;;;;;14.99;66.92;99716.03;5113141;28;20039;-60
2022/10/14 02:48:11;;;;;;;28.75;22.10;;;;;;;14.97;66.88;99710.03;5113185;28;20044;-60
2022/10/14 02:50:39;;;;;;;29.13;21.10;;;;;;;14.98;66.99;99712.56;5113013;28;20492;-63
2022/10/14 02:53:06;;;;;;;28.25;22.35;;;;;;;14.97;67.05;99704.72;5112056;28;20541;-62
2022/10/14 02:55:32;;;;;;;32.45;23.33;;;;;;;14.98;66.99;99703.75;5112265;28;20082;-61
2022/10/14 02:57:59;;;;;;;28.35;21.38;;;;;;;14.97;66.83;99700.28;5112884;28;20123;-60
2022/10/14 03:00:25;;;;;;;27.80;22.17;;;;;;;14.96;66.81;99689.81;5112437;28;20492;-60
2022/10/14 03:02:52;;;;;;;28.27;21.20;;;;;;;14.95;66.79;99693.41;5112956;28;20055;-62
2022/10/14 03:05:18;;;;;;;28.13;21.10;;;;;;;14.95;66.99;99696.06;5110910;28;20079;-60
2022/10/14 03:07:45;;;;;;;28.08;22.23;;;;;;;14.94;66.94;99705.81;5112818;28;20051;-60
2022/10/14 03:10:12;;;;;;;28.77;22.27;;;;;;;14.93;66.76;99701.47;5112163;28;20138;-60
2022/10/14 03:12:38;;;;;;;30.98;21.88;;;;;;;14.93;66.82;99712.09;5112010;27;20082;-61
2022/10/14 03:15:06;;;;;;;30.63;22.80;;;;;;;14.93;67.03;99709.44;5112235;28;20048;-65
2022/10/14 03:17:33;;;;;;;29.70;22.33;;;;;;;14.93;66.94;99705.94;5110943;28;20104;-62
2022/10/14 03:19:59;;;;;;;29.17;21.98;;;;;;;14.91;66.92;99700.75;5112403;28;20047;-60
2022/10/14 03:22:26;;;;;;;30.98;22.20;;;;;;;14.91;66.90;99702.56;5112407;28;20051;-60
2022/10/14 03:24:52;;;;;;;30.23;21.77;;;;;;;14.90;66.98;99696.41;5112449;28;20132;-62
2022/10/14 03:27:19;;;;;;;30.67;21.92;;;;;;;14.90;66.87;99696.41;5112164;28;20551;-62
2022/10/14 03:29:46;;;;;;;27.02;21.67;;;;;;;14.89;66.98;99701.81;5112236;28;20101;-61
2022/10/14 03:32:12;;;;;;;27.40;21.02;;;;;;;14.89;66.84;99696.53;5112710;28;20325;-61
2022/10/14 03:34:39;;;;;;;32.22;22.08;;;;;;;14.88;66.81;99695.66;5112432;28;20048;-62
2022/10/14 03:37:06;;;;;;;28.83;22.02;;;;;;;14.86;66.74;99684.34;5112454;28;20091;-63
2022/10/14 03:39:33;;;;;;;25.33;19.42;;;;;;;14.84;66.47;99687.13;5111869;28;20077;-63
2022/10/14 03:41:59;;;;;;;30.73;21.80;;;;;;;14.81;66.31;99682.03;5111962;28;20044;-62
2022/10/14 03:44:26;;;;;;;29.15;20.40;;;;;;;14.78;66.38;99687.59;5112363;28;20139;-60
2022/10/14 03:46:53;;;;;;;28.10;21.92;;;;;;;14.75;66.20;99686.94;5112126;28;20087;-61
2022/10/14 03:49:19;;;;;;;26.95;21.42;;;;;;;14.72;66.34;99683.56;5111819;28;20083;-62
2022/10/14 03:51:46;;;;;;;32.92;22.27;;;;;;;14.68;66.42;99686.56;5110612;28;20052;-62
2022/10/14 03:54:12;;;;;;;27.63;20.77;;;;;;;14.65;66.62;99690.28;5110771;28;20083;-61
2022/10/14 03:56:39;;;;;;;26.40;20.42;;;;;;;14.63;66.57;99688.72;5111649;28;20511;-64
2022/10/14 03:59:05;;;;;;;30.00;21.98;;;;;;;14.60;66.61;99684.50;5112146;28;20088;-63
2022/10/14 04:01:32;;;;;;;26.35;20.65;;;;;;;14.58;66.62;99689.06;5110724;28;20578;-60
2022/10/14 04:03:59;;;;;;;26.25;19.65;;;;;;;14.56;66.66;99669.78;5111901;28;20135;-61
2022/10/14 04:06:25;;;;;;;24.77;19.65;;;;;;;14.54;66.61;99666.44;5111823;28;20079;-62
2022/10/14 04:08:52;;;;;;;29.40;20.08;;;;;;;14.53;66.36;99672.66;5111382;28;20098;-61
2022/10/14 04:11:18;;;;;;;28.13;20.10;;;;;;;14.50;66.25;99675.56;5112002;28;20150;-61
2022/10/14 04:13:45;;;;;;;28.25;19.83;;;;;;;14.46;66.28;99675.78;5110690;28;20047;-61
2022/10/14 04:16:12;;;;;;;26.60;20.17;;;;;;;14.42;66.05;99674.31;5111632;28;20466;-62
2022/10/14 04:18:38;;;;;;;24.35;18.17;;;;;;;14.38;65.97;99677.28;5111380;28;20083;-62
2022/10/14 04:21:09;;;;;;;25.38;19.42;;;;;;;14.36;65.98;99684.53;5110610;28;20484;-61
2022/10/14 04:23:36;;;;;;;25.00;18.88;;;;;;;14.31;65.78;99687.50;5110078;28;20044;-62
2022/10/14 04:26:05;;;;;;;26.38;18.27;;;;;;;14.24;65.94;99681.81;5111598;28;20108;-61
2022/10/14 04:28:33;;;;;;;22.85;17.95;;;;;;;14.21;65.92;99682.06;5110222;28;20528;-64
2022/10/14 04:30:59;;;;;;;25.00;18.15;;;;;;;14.16;65.91;99682.38;5110398;28;20142;-61
2022/10/14 04:33:26;;;;;;;23.77;17.90;;;;;;;14.13;66.10;99674.66;5111381;28;20563;-62
2022/10/14 04:36:01;;;;;;;24.75;18.20;;;;;;;14.07;66.54;99678.63;5111452;28;20055;-62
2022/10/14 04:38:28;;;;;;;22.83;16.00;;;;;;;14.09;66.26;99678.50;5110017;28;20055;-64
2022/10/14 04:40:55;;;;;;;24.05;17.80;;;;;;;14.07;66.40;99678.63;5111714;28;20069;-61
2022/10/14 04:43:22;;;;;;;24.27;18.52;;;;;;;14.07;66.47;99678.63;5111468;28;20101;-61
2022/10/14 04:45:49;;;;;;;24.85;18.25;;;;;;;14.07;66.39;99678.63;5111523;28;20056;-64
2022/10/14 04:48:17;;;;;;;24.40;18.23;;;;;;;14.10;66.66;99672.25;5109731;28;20051;-61
2022/10/14 04:50:43;;;;;;;25.67;19.17;;;;;;;14.11;66.60;99671.28;5110247;28;20051;-62
2022/10/14 04:53:10;;;;;;;24.52;18.25;;;;;;;14.13;66.61;99674.66;5111497;28;20048;-61
2022/10/14 04:55:39;;;;;;;26.55;18.90;;;;;;;14.15;66.58;99670.13;5111439;28;20058;-62
2022/10/14 04:58:06;;;;;;;25.20;17.88;;;;;;;14.17;66.47;99664.72;5111378;28;20043;-62
2022/10/14 05:00:32;;;;;;;22.48;16.40;;;;;;;14.20;66.61;99670.63;5111182;28;20079;-64
2022/10/14 05:02:59;;;;;;;25.70;17.73;;;;;;;14.23;66.53;99660.75;5111237;28;20083;-62
2022/10/14 05:05:25;;;;;;;24.90;17.10;;;;;;;14.25;66.53;99666.78;5111093;28;20079;-61
2022/10/14 05:07:52;;;;;;;21.80;16.27;;;;;;;14.26;66.42;99660.53;5111299;28;20086;-61
2022/10/14 05:10:19;;;;;;;23.88;17.63;;;;;;;14.28;66.54;99653.31;5110905;28;20048;-64
2022/10/14 05:12:45;;;;;;;28.10;18.50;;;;;;;14.30;66.51;99651.41;5111327;28;20381;-61
2022/10/14 05:15:12;;;;;;;22.38;17.08;;;;;;;14.31;66.68;99646.00;5111167;28;20135;-61
2022/10/14 05:17:39;;;;;;;24.98;17.65;;;;;;;14.33;66.58;99649.34;5111157;28;20043;-64
2022/10/14 05:20:06;;;;;;;22.83;16.45;;;;;;;14.36;66.84;99644.81;5109502;28;20457;-61
2022/10/14 05:22:33;;;;;;;27.17;17.23;;;;;;;14.37;66.32;99652.63;5109920;28;20047;-61
2022/10/14 05:24:59;;;;;;;26.35;17.92;;;;;;;14.38;66.35;99649.03;5111060;28;20087;-62
2022/10/14 05:27:26;;;;;;;26.38;17.40;;;;;;;14.40;66.45;99647.13;5111286;28;20100;-62
2022/10/14 05:29:52;;;;;;;27.48;18.25;;;;;;;14.40;66.25;99639.19;5110733;28;20048;-61
2022/10/14 05:32:19;;;;;;;28.20;17.13;;;;;;;14.40;66.22;99647.13;5110909;28;20059;-61
2022/10/14 05:34:46;;;;;;;29.40;19.23;;;;;;;14.40;66.01;99644.47;5110696;28;20047;-61
2022/10/14 05:37:13;;;;;;;27.73;19.63;;;;;;;14.40;66.21;99630.38;5114273;28;20044;-61
2022/10/14 05:39:39;;;;;;;27.40;18.33;;;;;;;14.39;66.22;99629.53;5114573;28;20112;-65
2022/10/14 05:42:06;;;;;;;27.25;19.08;;;;;;;14.39;66.17;99632.16;5114519;28;20049;-63
2022/10/14 05:44:32;;;;;;;24.48;18.77;;;;;;;14.37;66.19;99636.75;5114666;28;20096;-61
2022/10/14 05:46:59;;;;;;;28.00;19.05;;;;;;;14.37;65.98;99639.41;5113202;28;20071;-61
2022/10/14 05:49:26;;;;;;;27.20;18.45;;;;;;;14.35;66.01;99633.34;5107670;28;20040;-66
2022/10/14 05:51:52;;;;;;;28.17;18.90;;;;;;;14.34;66.23;99634.31;5117688;27;20056;-61
2022/10/14 05:54:19;;;;;;;28.52;19.98;;;;;;;14.33;66.37;99630.81;5114248;28;20528;-62
2022/10/14 05:56:45;;;;;;;27.65;19.42;;;;;;;14.33;66.35;99630.00;5114170;28;20127;-61
2022/10/14 05:59:12;;;;;;;29.00;20.05;;;;;;;14.32;66.30;99634.44;5114084;28;20097;-63
2022/10/14 06:01:39;;;;;;;28.52;19.85;;;;;;;14.32;66.27;99633.63;5113925;28;20040;-61
2022/10/14 06:04:06;;;;;;;29.75;20.23;;;;;;;14.31;66.29;99622.16;5111555;27;20063;-62
2022/10/14 06:06:33;;;;;;;29.83;19.73;;;;;;;14.32;66.32;99625.66;5114224;28;20040;-61
2022/10/14 06:09:00;;;;;;;26.77;19.05;;;;;;;14.31;66.31;99621.31;5113077;28;20055;-66
2022/10/14 06:11:26;;;;;;;26.67;18.55;;;;;;;14.32;66.32;99615.06;5113096;28;20043;-66
2022/10/14 06:13:53;;;;;;;27.25;19.73;;;;;;;14.30;66.31;99609.88;5109835;27;20056;-67
2022/10/14 06:16:19;;;;;;;26.10;19.10;;;;;;;14.30;66.09;99614.34;5111943;28;20126;-61
2022/10/14 06:18:46;;;;;;;25.67;18.75;;;;;;;14.30;66.12;99603.75;5113858;28;20075;-65
2022/10/14 06:21:19;;;;;;;;;;;;;;;14.26;66.43;99603.13;5114225;27;20130;-61
2022/10/14 06:23:46;;;;;;;20.08;14.32;;;;;;;14.30;65.46;99598.44;5112242;28;19955;-61
2022/10/14 06:26:12;;;;;;;24.65;17.00;;;;;;;14.25;65.53;99593.50;5105279;28;20067;-64
2022/10/14 06:28:40;;;;;;;23.60;16.63;;;;;;;14.23;65.67;99589.25;5112343;28;20044;-62
2022/10/14 06:31:07;;;;;;;28.23;20.27;;;;;;;14.19;65.77;99589.53;5107461;28;20073;-64
2022/10/14 06:33:33;;;;;;;27.33;19.65;;;;;;;14.17;65.83;99588.78;5111492;28;20543;-61
2022/10/14 06:36:02;;;;;;;26.08;19.98;;;;;;;14.14;65.98;99578.44;5113506;28;20039;-62
2022/10/14 06:38:29;;;;;;;27.75;18.88;;;;;;;14.13;65.99;99582.03;5111764;28;20066;-64
2022/10/14 06:40:56;;;;;;;27.10;19.90;;;;;;;14.11;66.00;99583.94;5113536;28;20052;-61
2022/10/14 06:43:22;;;;;;;24.92;18.58;;;;;;;14.10;66.14;99582.28;5113305;28;20087;-61
2022/10/14 06:45:49;;;;;;;27.17;19.33;;;;;;;14.11;66.01;99585.75;5113189;28;20079;-63
2022/10/14 06:48:15;;;;;;;28.80;19.75;;;;;;;14.08;66.26;99578.88;5112826;28;20043;-61
2022/10/14 06:50:42;;;;;;;27.80;19.58;;;;;;;14.07;66.37;99588.63;5113471;28;20461;-62
2022/10/14 06:53:09;;;;;;;28.23;20.48;;;;;;;14.09;66.69;99574.44;5113144;28;20048;-62
2022/10/14 06:55:36;;;;;;;31.42;21.85;;;;;;;14.11;66.91;99581.31;5112924;28;20511;-62
2022/10/14 06:58:02;;;;;;;32.33;21.23;;;;;;;14.15;67.09;99584.56;5111721;28;20047;-62
2022/10/14 07:00:29;;;;;;;32.42;22.30;;;;;;;14.17;67.32;99580.84;5112943;28;20047;-63
2022/10/14 07:02:58;;;;;;;30.40;22.52;;;;;;;14.22;67.49;99587.59;5111883;28;20071;-63
2022/10/14 07:05:25;;;;;;;30.55;21.80;;;;;;;14.28;67.56;99584.50;5110446;28;20048;-63
2022/10/14 07:07:52;;;;;;;32.10;23.08;;;;;;;14.33;67.87;99587.63;5093477;28;20526;-62
2022/10/14 07:10:19;;;;;;;34.40;23.65;;;;;;;14.39;68.01;99588.97;5111118;28;20044;-62
2022/10/14 07:12:45;;;;;;;36.10;23.70;;;;;;;14.45;67.91;99580.56;5111649;28;20047;-65
2022/10/14 07:15:12;;;;;;;40.53;24.85;;;;;;;14.51;67.96;99580.09;5111388;28;20130;-62
2022/10/14 07:17:39;;;;;;;41.20;26.08;;;;;;;14.57;68.02;99581.41;5112341;28;20047;-63
2022/10/14 07:20:06;;;;;;;38.80;24.73;;;;;;;14.64;68.09;99584.44;5112584;28;20087;-66
2022/10/14 07:22:35;;;;;;;41.05;26.30;;;;;;;14.69;68.22;99580.47;5112704;28;20503;-62
2022/10/14 07:25:05;;;;;;;40.40;26.40;;;;;;;14.77;68.19;99587.03;5112582;28;20089;-62
2022/10/14 07:27:32;;;;;;;43.92;27.67;;;;;;;14.83;68.29;99581.22;5111736;28;20043;-63
2022/10/14 07:29:58;;;;;;;42.70;26.20;;;;;;;14.90;68.19;99578.94;5112379;28;20078;-63
2022/10/14 07:32:25;;;;;;;44.97;26.95;;;;;;;14.94;68.08;99583.91;5112783;28;20088;-61
2022/10/14 07:34:51;;;;;;;40.90;26.42;;;;;;;14.99;68.19;99586.16;5112506;28;20089;-61
2022/10/14 07:37:18;;;;;;;46.83;29.25;;;;;;;15.04;68.20;99575.22;5112234;28;20078;-62
2022/10/14 07:39:45;;;;;;;42.47;27.50;;;;;;;15.09;68.04;99578.34;5112179;28;20052;-61
2022/10/14 07:42:12;;;;;;;44.17;27.90;;;;;;;15.13;68.03;99573.66;5112221;28;20083;-61
2022/10/14 07:44:38;;;;;;;50.45;29.15;;;;;;;15.16;68.13;99568.94;5112288;28;20109;-63
2022/10/14 07:47:05;;;;;;;42.80;27.50;;;;;;;15.22;68.25;99571.09;5110974;28;20051;-62
2022/10/14 07:49:32;;;;;;;46.75;29.08;;;;;;;15.27;68.21;99572.53;5110651;28;20086;-65
2022/10/14 07:51:59;;;;;;;50.15;30.38;;;;;;;15.32;68.34;99568.56;5112194;28;20065;-61
2022/10/14 07:54:28;;;;;;;45.67;29.42;;;;;;;15.37;68.54;99561.06;5111940;28;20134;-61
2022/10/14 07:56:56;;;;;;;48.85;29.30;;;;;;;15.45;68.76;99568.44;5110953;28;20544;-61
2022/10/14 07:59:24;;;;;;;49.10;30.02;;;;;;;15.54;68.66;99576.59;5111325;28;20048;-62
2022/10/14 08:01:52;;;;;;;45.92;29.02;;;;;;;15.60;68.60;99568.16;5112057;28;20487;-62
2022/10/14 08:04:19;;;;;;;50.60;29.92;;;;;;;15.68;68.59;99559.56;5111871;28;20452;-63
2022/10/14 08:06:47;;;;;;;49.72;30.25;;;;;;;15.73;68.40;99554.72;5111847;28;20479;-62
2022/10/14 08:09:15;;;;;;;44.95;28.88;;;;;;;15.80;68.38;99563.84;5110162;28;20048;-62
2022/10/14 08:11:42;;;;;;;42.95;28.70;;;;;;;15.85;68.25;99563.50;5110988;28;20074;-62
2022/10/14 08:14:08;;;;;;;41.63;26.73;;;;;;;15.89;68.07;99559.63;5112119;28;20044;-61
2022/10/14 08:16:35;;;;;;;37.38;24.75;;;;;;;15.91;67.78;99557.66;5112000;28;20499;-62
2022/10/14 08:19:09;;;;;;;37.03;24.05;;;;;;;15.93;68.31;99554.88;5111319;28;20478;-61
2022/10/14 08:21:41;;;;;;;31.77;22.30;;;;;;;15.99;67.94;99549.09;5111754;28;20054;-61
2022/10/14 08:24:09;;;;;;;32.00;22.15;;;;;;;16.02;68.03;99548.84;5111785;28;20048;-61
2022/10/14 08:26:38;;;;;;;35.72;23.48;;;;;;;16.04;68.11;99551.38;5110497;28;20047;-62
2022/10/14 08:29:09;;;;;;;34.65;22.23;;;;;;;16.09;68.18;99549.16;5110140;28;20047;-64
2022/10/14 08:31:36;;;;;;;28.05;19.73;;;;;;;16.13;67.93;99555.91;5111448;28;20465;-61
2022/10/14 08:34:03;;;;;;;33.08;23.42;;;;;;;16.17;67.95;99564.44;5111878;28;20055;-61
2022/10/14 08:36:30;;;;;;;36.10;22.27;;;;;;;16.20;67.94;99558.88;5111512;28;20135;-61
2022/10/14 08:38:57;;;;;;;34.30;22.27;;;;;;;16.23;68.12;99556.81;5111421;28;20130;-60
2022/10/14 08:41:42;;;;;;;33.75;21.17;;;;;;;16.24;68.66;99553.19;5111590;28;20094;-63
2022/10/14 08:44:38;;;;;;;34.58;21.83;;;;;;;16.30;68.72;99551.00;5111394;28;20055;-60
2022/10/14 08:47:12;;;;;;;32.00;20.38;;;;;;;16.37;68.53;99545.03;5111372;28;20557;-60
2022/10/14 08:50:06;;;;;;;28.67;20.50;;;;;;;16.40;68.21;99546.56;5111167;28;20083;-61
2022/10/14 08:52:32;;;;;;;26.30;19.10;;;;;;;16.51;67.85;99561.59;5110276;28;20055;-61
2022/10/14 08:55:28;;;;;;;31.63;20.92;;;;;;;16.52;68.13;99556.16;5111552;28;20052;-61
2022/10/14 08:58:03;;;;;;;29.80;20.40;;;;;;;16.56;68.06;99556.72;5111434;28;20090;-62
2022/10/14 09:00:35;;;;;;;31.58;20.63;;;;;;;16.60;67.60;99552.84;5110128;28;20044;-62
2022/10/14 09:03:10;;;;;;;31.45;20.27;;;;;;;16.61;67.55;99549.22;5111183;28;20047;-61
2022/10/14 09:05:38;;;;;;;28.20;21.23;;;;;;;16.63;67.33;99547.25;5110393;28;20051;-61
2022/10/14 09:08:07;;;;;;;27.25;19.92;;;;;;;16.64;67.38;99542.81;5111296;28;20081;-61
2022/10/14 09:10:41;;;;;;;26.45;19.25;;;;;;;16.62;67.67;99537.63;5111868;28;20092;-61
2022/10/14 09:13:10;;;;;;;22.40;18.67;;;;;;;16.66;67.67;99535.53;5113994;28;20063;-62
2022/10/14 09:15:40;;;;;;;21.92;17.90;;;;;;;16.64;67.42;99534.81;5113881;28;20074;-61
2022/10/14 09:18:23;;;;;;;23.35;17.67;;;;;;;16.60;67.70;99528.09;5113536;28;20553;-61
2022/10/14 09:20:51;;;;;;;22.25;15.85;;;;;;;16.64;67.35;99534.81;5114016;28;20047;-62
2022/10/14 09:23:21;;;;;;;17.08;15.05;;;;;;;16.62;67.48;99518.16;5113839;28;20055;-60
2022/10/14 09:25:55;;;;;;;18.25;15.15;;;;;;;16.60;67.91;99522.78;5115166;28;20113;-61
2022/10/14 09:28:37;;;;;;;18.25;15.40;;;;;;;16.62;68.49;99528.78;5114720;28;20077;-61
2022/10/14 09:31:06;;;;;;;16.00;13.35;;;;;;;16.68;68.21;99517.66;5113744;28;20058;-62
2022/10/14 09:33:38;;;;;;;16.38;13.45;;;;;;;16.73;68.03;99523.41;5113409;28;20051;-61
2022/10/14 09:36:16;;;;;;;15.05;12.93;;;;;;;16.76;68.06;99517.81;5114779;28;20113;-61
2022/10/14 09:38:46;;;;;;;14.13;12.13;;;;;;;16.80;67.86;99513.91;5113438;28;20060;-63
2022/10/14 09:41:15;;;;;;;14.35;12.43;;;;;;;16.86;68.37;99511.69;5113449;28;20052;-61
2022/10/14 09:44:22;;;;;;;13.93;11.38;;;;;;;16.90;68.79;99513.94;5114443;28;20055;-63
2022/10/14 09:46:53;;;;;;;14.38;11.75;;;;;;;17.06;69.01;99494.88;5114708;28;20073;-63
2022/10/14 09:49:41;;;;;;;14.50;10.68;;;;;;;17.17;69.03;99501.03;5114349;28;20084;-61
2022/10/14 09:52:20;;;;;;;12.38;10.73;;;;;;;17.30;68.62;99501.63;5114656;28;20051;-62
2022/10/14 09:54:54;;;;;;;10.68;9.48;;;;;;;17.43;68.16;99495.19;5114508;28;20048;-65
2022/10/14 09:57:21;;;;;;;10.73;9.57;;;;;;;17.54;67.89;99497.72;5113435;28;20124;-62
2022/10/14 09:59:59;;;;;;;10.48;9.10;;;;;;;17.57;67.65;99500.09;5114192;28;20048;-61
2022/10/14 10:02:42;;;;;;;10.55;8.60;;;;;;;17.61;67.08;99498.03;5113161;28;20476;-61
2022/10/14 10:05:20;;;;;;;9.77;8.30;;;;;;;17.64;66.98;99495.06;5114250;28;20052;-61
2022/10/14 10:08:03;;;;;;;11.60;8.07;;;;;;;17.64;66.54;99494.22;5112977;28;20047;-62
2022/10/14 10:10:29;;;;;;;10.10;8.70;;;;;;;17.67;66.42;99481.47;5112926;28;20103;-64
2022/10/14 10:12:57;;;;;;;9.20;7.55;;;;;;;17.65;66.54;99474.63;5113844;28;20483;-61
2022/10/14 10:15:24;;;;;;;8.88;7.88;;;;;;;17.63;66.68;99472.09;5112480;28;20083;-61
2022/10/14 10:17:52;;;;;;;9.38;8.38;;;;;;;17.65;66.89;99477.28;5113978;28;20051;-63
2022/10/14 10:20:34;;;;;;;9.68;7.47;;;;;;;17.64;67.07;99472.94;5111424;28;20079;-61
2022/10/14 10:23:27;;;;;;;8.85;7.95;;;;;;;17.66;67.01;99473.63;5112279;28;20411;-61
2022/10/14 10:25:54;;;;;;;;;;;;;;;17.74;67.05;99475.56;5113150;28;20376;-62
2022/10/14 10:28:31;;;;;;;6.78;6.10;;;;;;;17.81;66.95;99469.56;5113305;28;20420;-62
2022/10/14 10:31:13;;;;;;;8.65;7.75;;;;;;;17.88;67.59;99461.00;5112906;28;20135;-64
2022/10/14 10:33:54;;;;;;;7.32;6.57;;;;;;;17.98;67.65;99453.81;5113330;28;20056;-62
2022/10/14 10:36:39;;;;;;;6.97;6.15;;;;;;;18.11;67.37;99448.22;5113743;28;20047;-63
2022/10/14 10:39:38;;;;;;;6.35;5.82;;;;;;;18.26;67.39;99461.09;5112726;28;20052;-63
2022/10/14 10:42:38;;;;;;;5.70;5.20;;;;;;;18.39;66.59;99450.94;5112059;28;20453;-61
2022/10/14 10:45:05;;;;;;;6.03;5.50;;;;;;;18.55;66.42;99457.47;5111948;28;20403;-63
2022/10/14 10:47:51;;;;;;;6.72;6.03;;;;;;;18.58;65.57;99452.69;5112387;28;20047;-62
2022/10/14 10:50:30;;;;;;;7.05;5.13;;;;;;;18.60;65.45;99448.06;5111935;28;20051;-63
2022/10/14 10:53:26;;;;;;;5.53;5.03;;;;;;;18.61;65.38;99449.72;5110816;28;20503;-62
2022/10/14 10:56:06;;;;;;;5.35;4.85;;;;;;;18.65;65.10;99442.28;5111861;28;20077;-64
2022/10/14 10:59:02;;;;;;;4.85;4.45;;;;;;;18.61;65.01;99444.41;5112922;28;20077;-64
2022/10/14 11:01:37;;;;;;;4.68;4.20;;;;;;;18.64;64.81;99443.25;5113186;28;20052;-65
2022/10/14 11:04:34;;;;;;;4.78;4.10;;;;;;;18.60;65.08;99439.22;5113186;28;20050;-62
2022/10/14 11:13:23;;;;;;;3.90;3.50;;;;;;;18.55;64.41;99437.00;5112617;28;20143;-63
2022/10/14 11:16:26;;;;;;;3.90;3.60;;;;;;;18.49;64.62;99426.91;5111478;28;20051;-61
2022/10/14 11:19:01;;;;;;;3.90;3.60;;;;;;;18.48;64.24;99430.56;5110979;27;20104;-62
2022/10/14 11:21:38;;;;;;;4.10;3.70;;;;;;;18.47;64.86;99427.06;5111140;28;20051;-63
2022/10/14 11:24:38;;;;;;;3.97;3.67;;;;;;;18.40;64.76;99420.66;5110550;28;20138;-63
2022/10/14 11:27:21;;;;;;;3.80;3.50;;;;;;;18.44;65.02;99423.84;5112939;28;20515;-64
2022/10/14 11:30:12;;;;;;;4.10;3.70;;;;;;;18.46;65.06;99417.41;5111135;28;20062;-62
2022/10/14 11:32:58;;;;;;;4.20;3.80;;;;;;;18.53;65.20;99404.31;5112107;28;20499;-61
2022/10/14 11:36:13;;;;;;;3.53;2.95;;;;;;;18.58;65.68;99403.88;5110915;28;20093;-60
2022/10/14 11:38:59;;;;;;;3.70;3.30;;;;;;;18.68;65.18;99396.66;5068991;28;20141;-64
2022/10/14 11:41:44;;;;;;;4.00;3.47;;;;;;;18.81;65.50;99393.66;5069246;28;20060;-63
2022/10/14 11:44:25;;;;;;;3.28;3.08;;;;;;;18.90;64.90;99389.22;5104219;28;20051;-64
2022/10/14 11:46:57;;;;;;;3.92;3.30;;;;;;;19.00;64.84;99397.16;5111036;28;20411;-61